Decoded Metar for LFOT (TOURS in FRANCE) (IATA:TUF) | Meteo·Mobile Aviation Weather
aviador You're here:

LFOT Decoded Metar

TOURS in FRANCE
Report Time2018-10-18 16:00:00
UTC Time2018-10-18 16:18:44
Flight Rules vfr VFR
Wind020° at 09 kt
W.Decomp.*RWY 02: 9.0 kt HW -0 kt LCW
W.Rank020° ranks 35
Current wind is above 020° avg. (5.1)
Visibility9999 m
Phenomena:N/A
Clouds:N/A
Expected CloudBase > 4,000 ft AGL from Temp-Dew spread
CeilingNone
Temp22°C (ISA +8)
Dew Point12°C (53% RH)
AAT19.4°C
QNH1018 hPa
Density Alt1,273 ft
Elevation354 ft
Report Wrong Elevation
Raw Report
LFOT 181600Z AUTO 02009KT 350V070 CAVOK 22/12 Q1018 NOSIG=

Extra information for LFOT:More info

Metar Taf Metar & Taf Last 4 Metars F.Rules Stats Wind Profile Meteogram Temp Stats Airport Information Weather charts Add Link Nearby VenuesMetar ALERT Operation Metar Decoded Social comments